Time;durP1;ratioP1;P1;durP2;ratioP2;P2;SDS_P1;SDS_P2;PMS_P1;PMS_P2;Temp;Humidity;BMP_temperature;BMP_pressure;BME280_temperature;BME280_humidity;BME280_pressure;Samples;Min_cycle;Max_cycle;Signal;HPM_P1;HPM_P2
2022/05/23 00:01:38;;;;;;;2.00;1.90;;;17.50;59.30;;;;;;975522;145;27356;-72
2022/05/23 00:04:05;;;;;;;3.13;1.93;;;17.50;59.50;;;;;;972654;145;27516;-73
2022/05/23 00:06:31;;;;;;;2.17;2.00;;;17.40;59.50;;;;;;974592;146;27671;-72
2022/05/23 00:08:58;;;;;;;1.77;1.67;;;17.40;59.80;;;;;;975466;146;27297;-72
2022/05/23 00:11:25;;;;;;;2.10;1.73;;;17.40;60.00;;;;;;978713;144;27482;-73
2022/05/23 00:13:51;;;;;;;1.90;1.80;;;17.40;60.10;;;;;;976090;146;27715;-72
2022/05/23 00:16:20;;;;;;;2.30;2.10;;;17.30;60.00;;;;;;977588;146;27327;-72
2022/05/23 00:18:47;;;;;;;2.43;1.90;;;17.30;60.20;;;;;;974300;146;27390;-71
2022/05/23 00:21:14;;;;;;;2.03;1.90;;;17.20;60.40;;;;;;977598;146;27256;-72
2022/05/23 00:23:40;;;;;;;1.87;1.77;;;17.10;60.40;;;;;;975936;144;27212;-73
2022/05/23 00:26:07;;;;;;;1.80;1.40;;;17.10;60.70;;;;;;976893;146;27399;-72
2022/05/23 00:28:33;;;;;;;1.83;1.67;;;17.00;60.60;;;;;;977009;146;27345;-72
2022/05/23 00:31:00;;;;;;;2.67;2.13;;;17.00;60.80;;;;;;976606;146;27300;-72
2022/05/23 00:36:11;;;;;;;1.90;1.80;;;16.90;61.10;;;;;;975460;146;27470;-72
2022/05/23 00:38:38;;;;;;;2.93;1.73;;;16.80;61.30;;;;;;978510;146;27384;-73
2022/05/23 00:44:07;;;;;;;1.90;1.70;;;16.80;62.20;;;;;;976787;144;27376;-72
2022/05/23 00:46:34;;;;;;;1.60;1.50;;;16.80;61.80;;;;;;977919;146;27233;-72
2022/05/23 00:49:03;;;;;;;1.50;1.40;;;16.80;62.10;;;;;;973404;146;27351;-73
2022/05/23 00:51:29;;;;;;;1.60;1.50;;;16.70;62.10;;;;;;976706;146;27343;-73
2022/05/23 00:53:56;;;;;;;2.83;1.73;;;16.80;62.30;;;;;;977086;144;27361;-72
2022/05/23 00:56:25;;;;;;;1.97;1.80;;;16.70;62.20;;;;;;975459;144;27325;-72
2022/05/23 00:58:55;;;;;;;1.87;1.77;;;16.80;62.40;;;;;;975102;146;27310;-72
2022/05/23 01:01:22;;;;;;;1.80;1.70;;;16.80;62.30;;;;;;974926;146;27321;-73
2022/05/23 01:03:48;;;;;;;1.60;1.50;;;16.70;62.10;;;;;;974896;146;27430;-72
2022/05/23 01:06:15;;;;;;;2.50;1.90;;;16.70;62.00;;;;;;977811;146;27407;-72
2022/05/23 01:08:41;;;;;;;1.87;1.60;;;16.70;62.00;;;;;;975640;146;27256;-72
2022/05/23 01:11:08;;;;;;;1.80;1.70;;;16.70;62.10;;;;;;975748;144;27462;-72
2022/05/23 01:13:34;;;;;;;4.40;1.50;;;16.70;61.90;;;;;;976018;144;27382;-72
2022/05/23 01:16:01;;;;;;;1.67;1.50;;;16.70;62.00;;;;;;978009;146;27328;-71
2022/05/23 01:18:28;;;;;;;2.20;1.50;;;16.70;61.90;;;;;;976966;146;27356;-72
2022/05/23 01:20:54;;;;;;;2.30;1.60;;;16.70;61.90;;;;;;976706;146;27425;-72
2022/05/23 01:23:39;;;;;;;3.03;1.43;;;16.80;62.10;;;;;;974866;146;27254;-72
2022/05/23 01:26:05;;;;;;;3.17;1.63;;;16.80;62.10;;;;;;976807;144;27245;-72
2022/05/23 01:28:32;;;;;;;1.83;1.60;;;16.90;62.00;;;;;;977586;146;27369;-74
2022/05/23 01:30:59;;;;;;;2.17;1.43;;;16.90;62.70;;;;;;975548;144;27413;-72
2022/05/23 01:33:25;;;;;;;2.50;1.55;;;17.00;62.00;;;;;;976199;146;27399;-72
2022/05/23 01:35:52;;;;;;;2.10;1.90;;;17.00;62.10;;;;;;975703;144;27307;-72
2022/05/23 01:38:18;;;;;;;3.37;1.57;;;17.10;62.30;;;;;;976644;146;27343;-73
2022/05/23 01:40:45;;;;;;;2.20;2.00;;;17.20;63.30;;;;;;977210;144;27284;-73
2022/05/23 01:43:11;;;;;;;2.00;1.90;;;17.30;62.70;;;;;;978191;144;27316;-72
2022/05/23 01:45:38;;;;;;;2.47;2.20;;;17.30;62.70;;;;;;975053;146;27744;-73
2022/05/23 01:48:05;;;;;;;2.57;2.20;;;17.40;62.80;;;;;;975370;144;27249;-72
2022/05/23 01:50:31;;;;;;;2.00;1.82;;;17.40;62.80;;;;;;977502;146;27911;-72
2022/05/23 01:52:58;;;;;;;2.13;1.93;;;17.50;63.00;;;;;;974439;146;27332;-73
2022/05/23 01:55:24;;;;;;;2.20;2.10;;;17.50;62.80;;;;;;976851;146;27345;-73
2022/05/23 01:57:51;;;;;;;2.62;2.00;;;17.60;62.80;;;;;;976615;146;27368;-71
2022/05/23 02:03:03;;;;;;;2.80;2.43;;;17.60;62.80;;;;;;977079;146;27358;-72
2022/05/23 02:05:30;;;;;;;1.90;1.80;;;17.50;62.70;;;;;;976849;146;27318;-72
2022/05/23 02:07:56;;;;;;;3.60;2.02;;;17.50;62.70;;;;;;976683;146;27393;-73
2022/05/23 02:10:22;;;;;;;2.40;2.17;;;17.50;62.80;;;;;;977309;144;27349;-72
2022/05/23 02:12:49;;;;;;;1.95;1.82;;;17.40;62.60;;;;;;974374;145;27383;-72
2022/05/23 02:15:15;;;;;;;1.90;1.80;;;17.40;62.60;;;;;;972995;145;27667;-72
2022/05/23 02:17:42;;;;;;;2.20;2.00;;;17.40;62.70;;;;;;975330;146;27293;-72
2022/05/23 02:20:09;;;;;;;1.90;1.80;;;17.30;62.70;;;;;;975855;146;27273;-73
2022/05/23 02:22:36;;;;;;;2.10;1.90;;;17.30;62.80;;;;;;974621;145;27317;-72
2022/05/23 02:25:02;;;;;;;1.83;1.73;;;17.20;62.90;;;;;;973808;146;27321;-72
2022/05/23 02:27:29;;;;;;;2.00;1.70;;;17.20;62.90;;;;;;976460;145;28617;-72
2022/05/23 02:29:55;;;;;;;2.67;1.60;;;17.10;62.70;;;;;;976139;145;27273;-72
2022/05/23 02:32:22;;;;;;;1.97;1.70;;;17.10;63.30;;;;;;975089;145;27369;-72
2022/05/23 02:34:48;;;;;;;1.40;1.33;;;17.00;63.50;;;;;;974587;143;27279;-72
2022/05/23 02:37:15;;;;;;;2.80;1.90;;;17.00;63.50;;;;;;975007;145;27333;-72
2022/05/23 02:39:41;;;;;;;2.90;1.90;;;16.90;63.50;;;;;;974049;146;27408;-72
2022/05/23 02:42:08;;;;;;;2.50;1.87;;;16.90;63.70;;;;;;973123;145;27778;-72
2022/05/23 02:44:35;;;;;;;2.20;2.00;;;16.80;63.90;;;;;;974390;145;27297;-72
2022/05/23 02:47:01;;;;;;;2.20;1.93;;;16.80;64.40;;;;;;975513;143;27751;-73
2022/05/23 02:49:28;;;;;;;1.97;1.87;;;16.80;64.60;;;;;;974660;146;27365;-73
2022/05/23 02:51:54;;;;;;;3.30;2.10;;;16.70;64.70;;;;;;975298;146;27453;-73
2022/05/23 02:54:21;;;;;;;2.20;2.00;;;16.70;65.00;;;;;;972625;145;27445;-73
2022/05/23 02:56:47;;;;;;;2.30;2.10;;;16.70;64.90;;;;;;973371;146;27312;-75
2022/05/23 02:59:14;;;;;;;3.03;2.13;;;16.70;65.30;;;;;;974459;146;27323;-75
2022/05/23 03:04:26;;;;;;;1.90;1.70;;;16.60;65.60;;;;;;975386;145;27513;-76
2022/05/23 03:06:52;;;;;;;3.33;2.47;;;16.60;65.30;;;;;;975452;146;27313;-77
2022/05/23 03:09:19;;;;;;;2.40;1.80;;;16.60;65.50;;;;;;974269;146;27378;-77
2022/05/23 03:11:48;;;;;;;1.80;1.70;;;16.60;65.60;;;;;;976078;144;27409;-77
2022/05/23 03:14:12;;;;;;;2.07;1.90;;;16.60;65.50;;;;;;984971;142;27272;-77
2022/05/23 03:16:39;;;;;;;2.20;2.00;;;16.60;65.70;;;;;;983817;144;27295;-76
2022/05/23 03:19:05;;;;;;;3.00;2.30;;;16.60;66.00;;;;;;985273;144;27404;-77
2022/05/23 03:27:01;;;;;;;2.53;2.13;;;16.70;65.60;;;;;;983361;144;27752;-75
2022/05/23 03:29:28;;;;;;;3.25;1.70;;;16.70;65.40;;;;;;983809;144;27298;-75
2022/05/23 03:31:54;;;;;;;2.77;1.97;;;16.80;65.30;;;;;;982906;144;27362;-75
2022/05/23 03:34:21;;;;;;;2.60;1.92;;;16.90;65.20;;;;;;983205;144;27444;-75
2022/05/23 03:36:48;;;;;;;1.95;1.85;;;16.90;65.00;;;;;;984869;144;27419;-75
2022/05/23 03:39:14;;;;;;;2.40;2.02;;;17.00;64.70;;;;;;983796;144;27263;-75
2022/05/23 03:41:41;;;;;;;2.70;2.27;;;17.10;64.60;;;;;;983289;144;27421;-75
2022/05/23 03:44:08;;;;;;;3.83;2.02;;;17.20;64.20;;;;;;982739;144;27260;-75
2022/05/23 03:46:34;;;;;;;2.03;1.83;;;17.30;64.10;;;;;;980992;144;27317;-75
2022/05/23 03:49:01;;;;;;;3.02;2.20;;;17.40;63.80;;;;;;983879;144;27335;-75
2022/05/23 03:51:27;;;;;;;5.17;2.12;;;17.60;63.50;;;;;;983038;144;27374;-75
2022/05/23 03:53:54;;;;;;;3.25;1.55;;;17.70;63.40;;;;;;982541;143;27328;-75
2022/05/23 03:56:21;;;;;;;2.20;1.77;;;17.70;63.00;;;;;;982443;144;27303;-74
2022/05/23 03:58:47;;;;;;;1.95;1.77;;;17.90;62.90;;;;;;980640;144;27336;-74
2022/05/23 04:01:13;;;;;;;2.00;1.90;;;18.00;62.50;;;;;;983116;144;27307;-75
2022/05/23 04:03:40;;;;;;;2.50;2.20;;;18.10;62.50;;;;;;983281;142;27293;-76
2022/05/23 04:06:07;;;;;;;3.02;1.95;;;18.20;62.50;;;;;;984659;144;28180;-75
2022/05/23 04:08:33;;;;;;;3.02;1.90;;;18.20;62.40;;;;;;983282;144;27424;-75
2022/05/23 04:11:00;;;;;;;2.02;1.92;;;18.30;62.30;;;;;;982479;144;27277;-75
2022/05/23 04:13:26;;;;;;;3.20;2.17;;;18.30;62.60;;;;;;977810;144;27440;-75
2022/05/23 04:15:53;;;;;;;3.80;2.58;;;18.40;62.80;;;;;;977230;144;27746;-75
2022/05/23 04:18:20;;;;;;;2.10;2.00;;;18.40;62.90;;;;;;975322;146;27411;-76
2022/05/23 04:20:46;;;;;;;4.85;1.80;;;18.50;63.20;;;;;;974887;146;27296;-75
2022/05/23 04:23:13;;;;;;;2.10;1.95;;;18.50;63.20;;;;;;973384;146;27328;-75
2022/05/23 04:25:42;;;;;;;3.25;2.15;;;18.50;63.70;;;;;;975947;146;27303;-75
2022/05/23 04:28:09;;;;;;;2.10;2.00;;;18.50;63.20;;;;;;976900;146;27339;-74
2022/05/23 04:30:35;;;;;;;1.80;1.70;;;18.50;63.10;;;;;;977227;146;27298;-75
2022/05/23 04:35:47;;;;;;;2.30;1.90;;;18.50;63.00;;;;;;976567;146;27253;-75
2022/05/23 04:38:13;;;;;;;2.77;1.90;;;18.50;62.90;;;;;;976282;146;27337;-75
2022/05/23 04:40:40;;;;;;;2.20;2.00;;;18.50;63.10;;;;;;976182;146;27326;-76
2022/05/23 04:43:06;;;;;;;2.40;2.08;;;18.50;62.90;;;;;;975451;146;27383;-76
2022/05/23 04:45:33;;;;;;;3.12;1.92;;;18.50;62.80;;;;;;976273;146;27313;-75
2022/05/23 04:50:44;;;;;;;1.77;1.67;;;18.50;62.60;;;;;;978213;146;27326;-75
2022/05/23 04:53:11;;;;;;;2.72;2.00;;;18.50;62.50;;;;;;976697;146;27499;-76
2022/05/23 04:55:41;;;;;;;2.20;2.10;;;18.50;62.60;;;;;;977300;146;27330;-74
2022/05/23 04:58:04;;;;;;;2.22;2.02;;;18.50;62.60;;;;;;975590;146;27365;-75
2022/05/23 05:00:31;;;;;;;1.80;1.70;;;18.50;62.70;;;;;;975389;146;27260;-75
2022/05/23 05:03:00;;;;;;;3.10;2.00;;;18.50;62.70;;;;;;975258;144;27222;-75
2022/05/23 05:05:27;;;;;;;2.02;1.82;;;18.50;62.70;;;;;;975879;146;27467;-75
2022/05/23 05:07:53;;;;;;;2.40;1.87;;;18.50;62.70;;;;;;975234;146;27305;-75
2022/05/23 05:10:21;;;;;;;2.17;1.98;;;18.60;62.80;;;;;;980359;146;27327;-76
2022/05/23 05:12:46;;;;;;;4.87;2.20;;;18.60;62.70;;;;;;975717;146;27272;-74
2022/05/23 05:15:13;;;;;;;2.92;2.30;;;18.60;62.60;;;;;;976629;146;27281;-75
2022/05/23 05:17:39;;;;;;;3.27;2.17;;;18.70;62.60;;;;;;978202;146;27320;-75
2022/05/23 05:20:08;;;;;;;2.05;1.70;;;18.80;62.60;;;;;;977331;146;27332;-75
2022/05/23 05:22:33;;;;;;;2.25;2.00;;;18.80;62.40;;;;;;975593;144;27316;-75
2022/05/23 05:24:59;;;;;;;4.22;1.92;;;18.90;62.40;;;;;;977625;146;27277;-75
2022/05/23 05:27:26;;;;;;;2.62;2.10;;;18.90;62.30;;;;;;975283;146;27617;-75
2022/05/23 05:29:53;;;;;;;2.10;2.00;;;19.00;62.10;;;;;;976881;144;27373;-75
2022/05/23 05:32:19;;;;;;;2.70;1.80;;;19.00;62.10;;;;;;974904;146;27328;-75
2022/05/23 05:34:49;;;;;;;1.80;1.70;;;19.10;62.00;;;;;;976078;146;28373;-75
2022/05/23 05:37:21;;;;;;;1.80;1.70;;;19.10;62.30;;;;;;976714;146;27325;-75
2022/05/23 05:39:48;;;;;;;3.22;2.12;;;19.20;61.80;;;;;;977390;146;27257;-74
2022/05/23 05:42:20;;;;;;;2.58;2.10;;;19.20;61.80;;;;;;973376;144;27344;-74
2022/05/23 05:44:47;;;;;;;3.55;2.27;;;19.20;62.00;;;;;;977079;146;27323;-74
2022/05/23 05:47:13;;;;;;;2.62;2.05;;;19.20;62.50;;;;;;975685;144;27273;-74
2022/05/23 05:49:40;;;;;;;2.47;2.27;;;19.20;63.80;;;;;;978052;146;27325;-75
2022/05/23 05:52:10;;;;;;;3.52;2.50;;;19.10;64.90;;;;;;976841;144;27353;-75
2022/05/23 05:54:33;;;;;;;2.50;2.30;;;19.00;66.10;;;;;;974116;144;27289;-75
2022/05/23 05:57:00;;;;;;;2.80;2.10;;;18.80;66.70;;;;;;974899;144;27337;-75
2022/05/23 05:59:26;;;;;;;2.60;2.40;;;18.50;67.40;;;;;;974650;146;27323;-76
2022/05/23 06:01:53;;;;;;;3.00;2.42;;;18.30;68.50;;;;;;977913;144;27313;-75
2022/05/23 06:04:19;;;;;;;2.27;2.07;;;18.00;69.60;;;;;;977349;146;27317;-75
2022/05/23 06:12:15;;;;;;;3.87;2.60;;;17.40;72.90;;;;;;976867;146;27454;-75
2022/05/23 06:14:43;;;;;;;2.57;2.30;;;17.30;74.10;;;;;;976673;146;27467;-76
2022/05/23 06:17:09;;;;;;;3.17;2.67;;;17.20;75.50;;;;;;977078;146;27302;-74
2022/05/23 06:19:41;;;;;;;5.30;3.10;;;17.10;76.50;;;;;;975816;146;27386;-74
2022/05/23 06:22:07;;;;;;;3.65;2.98;;;17.00;77.30;;;;;;975617;146;27315;-74
2022/05/23 06:24:34;;;;;;;4.33;3.27;;;17.00;78.60;;;;;;976960;146;27885;-74
2022/05/23 06:27:01;;;;;;;2.63;2.43;;;17.00;79.60;;;;;;975798;146;27388;-74
2022/05/23 06:29:27;;;;;;;3.10;2.80;;;17.10;81.20;;;;;;976065;146;27280;-74
2022/05/23 06:31:54;;;;;;;3.00;2.55;;;17.10;82.70;;;;;;975237;144;27361;-74
2022/05/23 06:34:20;;;;;;;3.42;2.42;;;17.20;83.90;;;;;;976093;144;27673;-74
2022/05/23 06:36:47;;;;;;;3.67;2.40;;;17.30;85.00;;;;;;977563;146;27353;-74
2022/05/23 06:39:14;;;;;;;4.28;2.60;;;17.50;85.70;;;;;;977161;146;27320;-74
2022/05/23 06:41:40;;;;;;;2.60;2.22;;;17.60;86.20;;;;;;975837;146;27297;-74
2022/05/23 06:44:07;;;;;;;3.80;2.47;;;17.90;86.80;;;;;;975323;146;27313;-74
2022/05/23 06:46:33;;;;;;;3.55;2.20;;;18.10;86.60;;;;;;976455;144;27347;-74
2022/05/23 06:49:00;;;;;;;2.70;2.50;;;18.40;85.90;;;;;;976729;144;27417;-74
2022/05/23 06:51:27;;;;;;;2.15;2.05;;;18.60;86.00;;;;;;974317;146;27379;-74
2022/05/23 06:53:55;;;;;;;4.37;2.02;;;19.00;85.40;;;;;;975248;146;27568;-75
2022/05/23 06:56:20;;;;;;;2.33;2.12;;;19.30;85.50;;;;;;978239;146;27265;-74
2022/05/23 06:58:46;;;;;;;2.33;2.12;;;19.80;85.70;;;;;;974141;146;27261;-75
2022/05/23 07:01:14;;;;;;;2.02;1.82;;;20.30;85.00;;;;;;975885;144;27342;-74
2022/05/23 07:03:41;;;;;;;2.02;1.62;;;20.90;84.20;;;;;;973970;144;27394;-74
2022/05/23 07:14:21;;;;;;;1.75;1.65;;;23.80;76.80;;;;;;976533;146;27402;-74
2022/05/23 07:16:48;;;;;;;1.80;1.70;;;24.60;76.10;;;;;;973551;146;27290;-75
2022/05/23 07:19:14;;;;;;;1.47;1.37;;;25.50;74.80;;;;;;973802;146;27388;-75
2022/05/23 07:21:41;;;;;;;2.27;1.60;;;26.40;71.40;;;;;;975962;146;27666;-75
2022/05/23 07:24:07;;;;;;;1.60;1.50;;;27.40;68.50;;;;;;974200;146;28601;-75
2022/05/23 07:26:35;;;;;;;1.87;1.50;;;28.30;66.50;;;;;;975632;145;27352;-75
2022/05/23 07:29:00;;;;;;;1.70;1.60;;;29.20;64.30;;;;;;973895;146;27280;-75
2022/05/23 07:31:27;;;;;;;1.50;1.50;;;30.10;62.10;;;;;;974333;145;27268;-75
2022/05/23 07:33:54;;;;;;;1.67;1.57;;;30.90;59.70;;;;;;976102;145;27444;-75
2022/05/23 07:36:20;;;;;;;1.47;1.37;;;31.70;58.30;;;;;;973775;146;27381;-76
2022/05/23 07:38:47;;;;;;;1.42;1.32;;;32.50;56.70;;;;;;973773;146;27338;-76
2022/05/23 07:41:13;;;;;;;1.50;1.40;;;33.20;55.60;;;;;;975027;146;26213;-75
2022/05/23 07:43:41;;;;;;;2.00;1.40;;;34.00;54.60;;;;;;974060;145;26207;-76
2022/05/23 07:46:10;;;;;;;2.22;1.32;;;34.70;53.60;;;;;;975435;145;26290;-75
2022/05/23 07:48:42;;;;;;;1.98;1.37;;;35.40;52.30;;;;;;973491;146;27358;-75
2022/05/23 07:51:08;;;;;;;1.20;1.10;;;36.10;51.20;;;;;;974355;146;27298;-75
2022/05/23 08:01:50;;;;;;;1.22;1.17;;;38.50;46.80;;;;;;976379;146;26318;-76
2022/05/23 08:04:16;;;;;;;1.00;1.00;;;39.00;46.40;;;;;;973822;146;26278;-76
2022/05/23 08:06:42;;;;;;;0.90;0.90;;;39.40;45.00;;;;;;973435;146;26206;-76
2022/05/23 08:09:09;;;;;;;3.00;1.30;;;39.80;43.90;;;;;;974554;146;26116;-76
2022/05/23 08:11:36;;;;;;;1.50;1.25;;;40.10;42.70;;;;;;974751;146;26314;-76
2022/05/23 08:14:02;;;;;;;1.52;1.10;;;40.20;41.50;;;;;;973050;145;26356;-76
2022/05/23 08:16:30;;;;;;;2.50;1.30;;;40.10;40.00;;;;;;976498;144;27500;-76
2022/05/23 08:18:55;;;;;;;1.27;1.17;;;39.90;39.30;;;;;;975225;146;26432;-76
2022/05/23 08:21:22;;;;;;;1.17;0.98;;;39.60;39.80;;;;;;972878;146;27775;-76
2022/05/23 08:23:48;;;;;;;1.25;1.12;;;39.40;40.10;;;;;;974370;146;26215;-76
2022/05/23 08:26:15;;;;;;;1.45;1.35;;;39.40;40.30;;;;;;975052;146;27419;-76
2022/05/23 08:28:42;;;;;;;0.95;0.95;;;39.40;40.00;;;;;;976239;146;26231;-76
2022/05/23 08:31:08;;;;;;;1.72;1.07;;;39.40;39.70;;;;;;973167;146;26742;-76
2022/05/23 08:33:35;;;;;;;1.17;1.00;;;39.50;39.30;;;;;;975788;146;26202;-76
2022/05/23 08:36:01;;;;;;;1.17;1.07;;;39.50;38.90;;;;;;975908;146;26147;-76
2022/05/23 08:38:28;;;;;;;4.15;1.70;;;39.50;38.60;;;;;;976240;144;26215;-76
2022/05/23 08:41:00;;;;;;;1.82;1.40;;;39.40;38.10;;;;;;976196;146;26303;-76
2022/05/23 08:43:27;;;;;;;1.40;1.30;;;39.20;37.40;;;;;;973722;146;26246;-76
2022/05/23 08:45:54;;;;;;;1.35;1.25;;;38.90;37.20;;;;;;973055;146;27699;-77
2022/05/23 08:48:29;;;;;;;1.40;1.30;;;38.50;37.40;;;;;;974689;146;26517;-76
2022/05/23 08:51:01;;;;;;;1.82;1.37;;;38.20;37.60;;;;;;976788;146;26242;-76
2022/05/23 08:53:30;;;;;;;1.52;1.40;;;37.90;37.50;;;;;;972127;144;26654;-76
2022/05/23 08:56:15;;;;;;;1.45;1.20;;;37.70;37.50;;;;;;974813;146;26179;-76
2022/05/23 08:58:43;;;;;;;1.57;1.20;;;37.40;37.60;;;;;;974663;146;26160;-76
2022/05/23 09:01:08;;;;;;;2.30;2.02;;;37.10;37.80;;;;;;975279;146;27799;-76
2022/05/23 09:03:37;;;;;;;1.90;1.52;;;36.80;37.50;;;;;;973510;146;27426;-76
2022/05/23 09:06:22;;;;;;;1.25;1.20;;;36.60;37.50;;;;;;971042;144;27319;-76
2022/05/23 09:08:54;;;;;;;6.83;1.60;;;36.30;38.00;;;;;;974202;146;27302;-75
2022/05/23 09:11:27;;;;;;;6.33;1.85;;;36.00;38.30;;;;;;975885;144;27416;-76
2022/05/23 09:13:51;;;;;;;1.50;1.40;;;35.80;38.80;;;;;;973851;146;27342;-76
2022/05/23 09:16:17;;;;;;;1.55;1.00;;;35.80;39.10;;;;;;978729;144;27370;-76
2022/05/23 09:18:52;;;;;;;1.77;1.15;;;36.00;39.30;;;;;;984088;144;26279;-76
2022/05/23 09:21:19;;;;;;;1.32;1.20;;;36.30;39.70;;;;;;983120;144;27277;-76
2022/05/23 09:23:50;;;;;;;1.02;0.93;;;36.60;39.50;;;;;;987587;144;26326;-76
2022/05/23 09:26:17;;;;;;;1.32;1.22;;;37.00;39.90;;;;;;985222;144;26318;-76
2022/05/23 09:28:44;;;;;;;1.77;1.35;;;37.40;38.90;;;;;;983210;144;26197;-76
2022/05/23 09:31:32;;;;;;;1.62;1.25;;;37.80;38.50;;;;;;983758;144;26250;-76
2022/05/23 09:33:59;;;;;;;1.50;1.40;;;38.10;37.90;;;;;;983252;144;27397;-76
2022/05/23 09:36:25;;;;;;;1.00;1.00;;;38.30;36.70;;;;;;986472;144;26310;-76
2022/05/23 09:38:57;;;;;;;2.20;2.00;;;38.40;36.60;;;;;;982504;144;26233;-76
2022/05/23 09:47:44;;;;;;;2.45;1.30;;;38.40;36.50;;;;;;982785;143;26298;-76
2022/05/23 09:49:30;;;;;;;1.75;1.15;;;38.40;35.60;;;;;;984427;144;26233;-75
2022/05/23 09:51:55;;;;;;;1.75;1.12;;;38.30;35.40;;;;;;984338;142;27447;-76
2022/05/23 09:54:38;;;;;;;1.25;1.10;;;38.20;35.30;;;;;;984799;144;26222;-76
2022/05/23 09:57:04;;;;;;;2.60;1.30;;;37.90;35.60;;;;;;985916;144;26169;-75
2022/05/23 09:59:33;;;;;;;1.98;1.40;;;37.80;36.00;;;;;;985282;144;26197;-76
2022/05/23 10:02:06;;;;;;;1.60;1.50;;;37.70;36.20;;;;;;986616;142;26190;-76
2022/05/23 10:04:32;;;;;;;1.27;0.93;;;37.60;36.10;;;;;;983223;144;26265;-76
2022/05/23 10:06:59;;;;;;;1.40;1.30;;;37.60;36.00;;;;;;983825;142;26210;-76
2022/05/23 10:09:25;;;;;;;2.02;1.10;;;37.50;35.70;;;;;;984200;144;26138;-76
2022/05/23 10:12:00;;;;;;;1.00;0.98;;;37.30;35.20;;;;;;984469;142;26239;-76
2022/05/23 10:14:27;;;;;;;1.25;0.98;;;37.10;35.00;;;;;;984267;144;27369;-76
2022/05/23 10:16:56;;;;;;;1.32;1.20;;;36.80;34.80;;;;;;975047;144;27953;-76
2022/05/23 10:19:32;;;;;;;2.27;1.05;;;36.50;34.90;;;;;;974172;145;27406;-75
2022/05/23 10:22:20;;;;;;;1.15;0.90;;;36.10;35.20;;;;;;974815;146;27415;-75
2022/05/23 10:24:58;;;;;;;1.12;1.00;;;35.70;35.50;;;;;;972964;146;27308;-76
2022/05/23 10:27:24;;;;;;;2.17;1.60;;;35.30;35.80;;;;;;974641;145;27246;-76
2022/05/23 10:29:53;;;;;;;1.45;1.35;;;34.90;36.20;;;;;;971413;143;27293;-76
2022/05/23 10:32:23;;;;;;;1.87;1.20;;;34.60;36.30;;;;;;973685;145;27415;-76
2022/05/23 10:34:50;;;;;;;0.95;0.95;;;34.40;36.40;;;;;;970912;146;27402;-76
2022/05/23 10:37:16;;;;;;;1.55;1.42;;;34.20;36.60;;;;;;971615;143;27298;-76
2022/05/23 10:42:42;;;;;;;1.85;1.30;;;33.70;37.20;;;;;;974783;146;27299;-75
2022/05/23 10:45:21;;;;;;;1.77;1.07;;;33.50;37.40;;;;;;973183;146;27293;-75
2022/05/23 10:47:50;;;;;;;1.82;1.10;;;33.30;37.50;;;;;;973762;143;27339;-75
2022/05/23 10:50:38;;;;;;;1.25;1.15;;;33.10;37.70;;;;;;974729;146;27425;-75
2022/05/23 10:53:13;;;;;;;1.82;1.25;;;32.90;38.00;;;;;;933144;151;27418;-75
2022/05/23 10:55:55;;;;;;;1.72;1.22;;;32.70;38.10;;;;;;932771;151;27547;-75
2022/05/23 10:58:24;;;;;;;1.67;1.12;;;32.60;38.60;;;;;;952150;146;27672;-75
2022/05/23 11:00:53;;;;;;;2.52;1.25;;;32.50;38.80;;;;;;972233;146;27419;-76
2022/05/23 11:03:38;;;;;;;1.10;1.00;;;32.50;39.00;;;;;;973485;146;27322;-75
2022/05/23 11:06:11;;;;;;;1.42;1.32;;;32.40;39.00;;;;;;973460;143;27264;-75
2022/05/23 11:08:38;;;;;;;1.10;0.98;;;32.40;39.00;;;;;;973628;146;27394;-75
2022/05/23 11:11:04;;;;;;;1.00;1.00;;;32.30;39.00;;;;;;973237;145;27365;-75
2022/05/23 11:13:49;;;;;;;2.35;1.45;;;32.20;39.30;;;;;;974475;144;27431;-75
2022/05/23 11:16:28;;;;;;;1.12;1.02;;;32.10;39.50;;;;;;975107;146;27316;-75
2022/05/23 11:19:06;;;;;;;1.22;1.10;;;32.00;39.60;;;;;;972272;146;27863;-74
2022/05/23 11:21:42;;;;;;;1.10;1.00;;;31.90;39.70;;;;;;975568;146;27305;-75
2022/05/23 11:24:08;;;;;;;1.35;1.22;;;31.90;39.80;;;;;;975168;145;27366;-75
2022/05/23 11:26:41;;;;;;;2.05;1.40;;;31.90;39.90;;;;;;975277;146;27404;-75
2022/05/23 11:34:58;;;;;;;2.17;1.42;;;31.90;40.60;;;;;;974997;146;27281;-75
2022/05/23 11:40:06;;;;;;;3.47;1.22;;;32.00;40.80;;;;;;973399;143;27317;-75
2022/05/23 11:42:48;;;;;;;2.00;1.50;;;32.10;40.70;;;;;;974057;145;27439;-75
2022/05/23 11:48:02;;;;;;;1.45;1.35;;;32.10;40.60;;;;;;973945;146;27224;-75
2022/05/23 11:50:31;;;;;;;3.67;1.17;;;32.20;40.70;;;;;;973824;146;27286;-75
2022/05/23 11:53:10;;;;;;;1.75;1.07;;;32.20;40.80;;;;;;975456;146;27314;-75
2022/05/23 11:55:55;;;;;;;2.98;1.40;;;32.30;40.90;;;;;;972963;146;27253;-75
2022/05/23 11:58:24;;;;;;;2.47;1.37;;;32.30;40.80;;;;;;975726;146;27330;-75
2022/05/23 12:01:03;;;;;;;1.32;1.22;;;32.30;40.90;;;;;;974977;143;27990;-75
2022/05/23 12:03:29;;;;;;;2.45;1.37;;;32.30;41.50;;;;;;973940;146;27478;-75
2022/05/23 12:06:14;;;;;;;1.40;1.17;;;32.30;41.20;;;;;;969218;146;27288;-75
2022/05/23 12:08:40;;;;;;;1.10;1.00;;;32.40;41.30;;;;;;932948;151;27387;-75
2022/05/23 12:11:21;;;;;;;1.75;1.30;;;32.50;41.40;;;;;;958830;146;27331;-75
2022/05/23 12:13:49;;;;;;;1.35;1.25;;;32.50;41.50;;;;;;974291;146;27319;-75
2022/05/23 12:16:20;;;;;;;2.75;1.35;;;32.70;41.50;;;;;;974033;146;27275;-75
2022/05/23 12:18:45;;;;;;;2.33;1.50;;;32.70;41.30;;;;;;980644;144;27423;-75
2022/05/23 12:21:36;;;;;;;2.22;1.40;;;32.80;41.30;;;;;;983107;144;27616;-75
2022/05/23 12:24:23;;;;;;;3.47;1.52;;;32.90;41.00;;;;;;985092;144;27323;-75
2022/05/23 12:26:52;;;;;;;1.57;1.30;;;33.00;40.90;;;;;;986025;144;27399;-77
2022/05/23 12:29:34;;;;;;;3.27;1.62;;;33.00;40.90;;;;;;985426;144;27391;-75
2022/05/23 12:32:20;;;;;;;2.02;1.67;;;33.00;40.90;;;;;;985191;144;27437;-75
2022/05/23 12:34:49;;;;;;;1.52;1.30;;;32.90;41.00;;;;;;983472;144;27370;-76
2022/05/23 12:37:26;;;;;;;1.87;1.40;;;32.80;41.00;;;;;;985299;144;27389;-75
2022/05/23 12:40:16;;;;;;;2.72;1.30;;;32.80;41.30;;;;;;984953;144;27339;-76
2022/05/23 12:43:04;;;;;;;1.27;1.15;;;32.70;41.40;;;;;;986092;144;27413;-75
2022/05/23 12:45:45;;;;;;;2.30;1.45;;;32.60;41.70;;;;;;983467;142;27337;-75
2022/05/23 12:48:14;;;;;;;1.35;1.25;;;32.60;41.70;;;;;;986539;142;27795;-75
2022/05/23 12:50:56;;;;;;;1.85;1.47;;;32.50;41.70;;;;;;984816;144;27397;-75
2022/05/23 12:53:32;;;;;;;1.70;1.40;;;32.50;41.70;;;;;;984460;144;27394;-76
2022/05/23 12:56:07;;;;;;;1.72;1.40;;;32.60;41.80;;;;;;982007;144;27406;-75
2022/05/23 12:58:55;;;;;;;1.45;1.35;;;32.50;41.90;;;;;;984299;144;27910;-75
2022/05/23 13:01:22;;;;;;;1.40;1.30;;;32.50;42.00;;;;;;985190;144;27345;-75
2022/05/23 13:03:51;;;;;;;2.98;1.85;;;32.40;42.10;;;;;;985118;144;27261;-75
2022/05/23 13:06:18;;;;;;;1.25;1.15;;;32.40;42.10;;;;;;983704;144;27349;-75
2022/05/23 13:08:54;;;;;;;1.37;1.22;;;32.30;42.10;;;;;;986509;144;27249;-75
2022/05/23 13:11:23;;;;;;;1.90;1.32;;;32.20;42.20;;;;;;986072;144;27323;-75
2022/05/23 13:13:50;;;;;;;3.77;1.80;;;32.10;42.40;;;;;;983391;144;27290;-75
2022/05/23 13:16:25;;;;;;;2.00;1.80;;;32.10;42.60;;;;;;982909;144;27313;-75
2022/05/23 13:27:06;;;;;;;1.27;1.17;;;31.70;43.00;;;;;;976150;146;27341;-75
2022/05/23 13:29:32;;;;;;;3.27;1.80;;;31.70;43.20;;;;;;973914;146;27414;-75
2022/05/23 13:32:02;;;;;;;1.87;1.32;;;31.60;43.30;;;;;;976757;144;27305;-75
2022/05/23 13:34:34;;;;;;;2.75;1.75;;;31.60;43.70;;;;;;976644;146;27298;-75
2022/05/23 13:37:01;;;;;;;2.90;1.62;;;31.60;43.60;;;;;;977695;146;27260;-75
2022/05/23 13:39:29;;;;;;;2.87;1.72;;;31.60;43.70;;;;;;975593;146;27322;-75
2022/05/23 13:41:54;;;;;;;2.40;1.55;;;31.60;43.90;;;;;;977659;146;27312;-75
2022/05/23 13:44:21;;;;;;;2.85;2.00;;;31.60;43.90;;;;;;976516;146;27385;-75
2022/05/23 13:46:47;;;;;;;2.33;1.65;;;31.60;44.00;;;;;;975649;144;27368;-75
2022/05/23 13:49:17;;;;;;;2.15;1.90;;;31.60;44.10;;;;;;973834;146;27774;-75
2022/05/23 13:51:49;;;;;;;2.02;1.82;;;31.70;44.30;;;;;;976812;146;27469;-75
2022/05/23 13:54:13;;;;;;;1.70;1.50;;;31.70;44.50;;;;;;975786;146;27301;-75
2022/05/23 13:56:41;;;;;;;2.67;2.33;;;31.70;44.50;;;;;;977582;146;27386;-76
2022/05/23 13:59:06;;;;;;;1.60;1.50;;;31.80;44.50;;;;;;977028;146;27299;-76
2022/05/23 14:01:35;;;;;;;1.80;1.70;;;31.90;44.50;;;;;;975617;146;27384;-76
2022/05/23 14:04:09;;;;;;;2.58;1.70;;;31.90;44.50;;;;;;979984;146;27858;-75
2022/05/23 14:06:34;;;;;;;1.60;1.50;;;31.90;44.50;;;;;;975435;146;27291;-75
2022/05/23 14:09:01;;;;;;;2.65;2.00;;;32.00;44.40;;;;;;976086;146;27364;-75